sensor_id;sensor_type;location;lat;lon;timestamp;P1;durP1;ratioP1;P2;durP2;ratioP2
49590;SDS011;35496;-21.974;-46.800;2023-08-07T00:01:32;8.30;;;4.90;;
49590;SDS011;35496;-21.974;-46.800;2023-08-07T00:03:58;9.65;;;4.95;;
49590;SDS011;35496;-21.974;-46.800;2023-08-07T00:06:24;5.38;;;4.20;;
49590;SDS011;35496;-21.974;-46.800;2023-08-07T00:08:51;21.20;;;4.97;;
49590;SDS011;35496;-21.974;-46.800;2023-08-07T00:11:17;9.18;;;4.18;;
49590;SDS011;35496;-21.974;-46.800;2023-08-07T00:13:43;10.98;;;4.75;;
49590;SDS011;35496;-21.974;-46.800;2023-08-07T00:16:09;7.13;;;3.78;;
49590;SDS011;35496;-21.974;-46.800;2023-08-07T00:18:35;10.52;;;5.55;;
49590;SDS011;35496;-21.974;-46.800;2023-08-07T00:21:01;7.10;;;5.45;;
49590;SDS011;35496;-21.974;-46.800;2023-08-07T00:23:27;10.05;;;4.95;;
49590;SDS011;35496;-21.974;-46.800;2023-08-07T00:25:53;5.07;;;4.18;;
49590;SDS011;35496;-21.974;-46.800;2023-08-07T00:28:19;15.70;;;3.90;;
49590;SDS011;35496;-21.974;-46.800;2023-08-07T00:30:45;10.48;;;4.78;;
49590;SDS011;35496;-21.974;-46.800;2023-08-07T00:33:11;6.90;;;4.10;;
49590;SDS011;35496;-21.974;-46.800;2023-08-07T00:35:37;5.50;;;4.45;;
49590;SDS011;35496;-21.974;-46.800;2023-08-07T00:38:04;6.15;;;4.43;;
49590;SDS011;35496;-21.974;-46.800;2023-08-07T00:40:36;7.20;;;3.95;;
49590;SDS011;35496;-21.974;-46.800;2023-08-07T00:43:03;11.40;;;4.45;;
49590;SDS011;35496;-21.974;-46.800;2023-08-07T00:45:29;9.50;;;4.53;;
49590;SDS011;35496;-21.974;-46.800;2023-08-07T00:47:55;14.23;;;4.97;;
49590;SDS011;35496;-21.974;-46.800;2023-08-07T00:50:21;6.38;;;4.15;;
49590;SDS011;35496;-21.974;-46.800;2023-08-07T00:52:47;7.18;;;3.90;;
49590;SDS011;35496;-21.974;-46.800;2023-08-07T00:55:13;10.40;;;5.53;;
49590;SDS011;35496;-21.974;-46.800;2023-08-07T00:57:39;6.00;;;4.28;;
49590;SDS011;35496;-21.974;-46.800;2023-08-07T01:00:05;6.65;;;4.80;;
49590;SDS011;35496;-21.974;-46.800;2023-08-07T01:02:33;13.15;;;4.45;;
49590;SDS011;35496;-21.974;-46.800;2023-08-07T01:04:59;6.57;;;3.78;;
49590;SDS011;35496;-21.974;-46.800;2023-08-07T01:07:25;7.80;;;4.20;;
49590;SDS011;35496;-21.974;-46.800;2023-08-07T01:09:51;7.22;;;3.88;;
49590;SDS011;35496;-21.974;-46.800;2023-08-07T01:12:22;5.63;;;4.07;;
49590;SDS011;35496;-21.974;-46.800;2023-08-07T01:14:58;10.80;;;5.40;;
49590;SDS011;35496;-21.974;-46.800;2023-08-07T01:17:27;6.30;;;4.20;;
49590;SDS011;35496;-21.974;-46.800;2023-08-07T01:19:53;5.55;;;3.60;;
49590;SDS011;35496;-21.974;-46.800;2023-08-07T01:22:21;5.70;;;4.65;;
49590;SDS011;35496;-21.974;-46.800;2023-08-07T01:24:48;8.57;;;4.60;;
49590;SDS011;35496;-21.974;-46.800;2023-08-07T01:27:18;13.25;;;3.90;;
49590;SDS011;35496;-21.974;-46.800;2023-08-07T01:35:02;18.27;;;6.13;;
49590;SDS011;35496;-21.974;-46.800;2023-08-07T01:37:29;10.80;;;4.97;;
49590;SDS011;35496;-21.974;-46.800;2023-08-07T01:39:57;8.10;;;4.22;;
49590;SDS011;35496;-21.974;-46.800;2023-08-07T01:42:24;8.40;;;4.15;;
49590;SDS011;35496;-21.974;-46.800;2023-08-07T01:44:50;8.05;;;4.13;;
49590;SDS011;35496;-21.974;-46.800;2023-08-07T01:47:16;6.47;;;3.70;;
49590;SDS011;35496;-21.974;-46.800;2023-08-07T01:49:42;8.98;;;3.58;;
49590;SDS011;35496;-21.974;-46.800;2023-08-07T01:52:09;7.25;;;4.03;;
49590;SDS011;35496;-21.974;-46.800;2023-08-07T01:54:36;4.97;;;3.65;;
49590;SDS011;35496;-21.974;-46.800;2023-08-07T01:57:02;9.88;;;4.75;;
49590;SDS011;35496;-21.974;-46.800;2023-08-07T01:59:28;3.88;;;3.28;;
49590;SDS011;35496;-21.974;-46.800;2023-08-07T02:01:54;8.13;;;3.67;;
49590;SDS011;35496;-21.974;-46.800;2023-08-07T02:04:20;6.95;;;4.25;;
49590;SDS011;35496;-21.974;-46.800;2023-08-07T02:06:47;7.50;;;4.13;;
49590;SDS011;35496;-21.974;-46.800;2023-08-07T02:09:13;5.68;;;3.83;;
49590;SDS011;35496;-21.974;-46.800;2023-08-07T02:11:39;7.82;;;4.10;;
49590;SDS011;35496;-21.974;-46.800;2023-08-07T02:14:05;6.10;;;3.83;;
49590;SDS011;35496;-21.974;-46.800;2023-08-07T02:16:31;6.32;;;3.47;;
49590;SDS011;35496;-21.974;-46.800;2023-08-07T02:18:57;8.57;;;3.88;;
49590;SDS011;35496;-21.974;-46.800;2023-08-07T02:21:23;5.65;;;3.80;;
49590;SDS011;35496;-21.974;-46.800;2023-08-07T02:23:49;6.25;;;4.07;;
49590;SDS011;35496;-21.974;-46.800;2023-08-07T02:26:15;23.58;;;4.32;;
49590;SDS011;35496;-21.974;-46.800;2023-08-07T02:28:41;7.85;;;3.83;;
49590;SDS011;35496;-21.974;-46.800;2023-08-07T02:31:07;12.27;;;4.25;;
49590;SDS011;35496;-21.974;-46.800;2023-08-07T02:33:33;6.05;;;4.18;;
49590;SDS011;35496;-21.974;-46.800;2023-08-07T02:35:59;5.75;;;3.67;;
49590;SDS011;35496;-21.974;-46.800;2023-08-07T02:38:25;6.15;;;4.32;;
49590;SDS011;35496;-21.974;-46.800;2023-08-07T02:40:51;6.07;;;3.30;;
49590;SDS011;35496;-21.974;-46.800;2023-08-07T02:43:17;7.75;;;4.07;;
49590;SDS011;35496;-21.974;-46.800;2023-08-07T02:45:43;5.82;;;3.92;;
49590;SDS011;35496;-21.974;-46.800;2023-08-07T02:48:09;10.60;;;4.75;;
49590;SDS011;35496;-21.974;-46.800;2023-08-07T02:50:35;10.05;;;4.35;;
49590;SDS011;35496;-21.974;-46.800;2023-08-07T02:53:01;11.98;;;4.68;;
49590;SDS011;35496;-21.974;-46.800;2023-08-07T02:55:27;6.05;;;3.72;;
49590;SDS011;35496;-21.974;-46.800;2023-08-07T02:57:53;10.15;;;3.88;;
49590;SDS011;35496;-21.974;-46.800;2023-08-07T03:00:19;5.45;;;3.22;;
49590;SDS011;35496;-21.974;-46.800;2023-08-07T03:02:45;8.48;;;4.07;;
49590;SDS011;35496;-21.974;-46.800;2023-08-07T03:05:11;8.20;;;3.88;;
49590;SDS011;35496;-21.974;-46.800;2023-08-07T03:07:38;4.13;;;3.33;;
49590;SDS011;35496;-21.974;-46.800;2023-08-07T03:10:04;9.88;;;3.78;;
49590;SDS011;35496;-21.974;-46.800;2023-08-07T03:12:30;4.95;;;3.53;;
49590;SDS011;35496;-21.974;-46.800;2023-08-07T03:14:57;12.60;;;3.53;;
49590;SDS011;35496;-21.974;-46.800;2023-08-07T03:17:23;12.73;;;4.78;;
49590;SDS011;35496;-21.974;-46.800;2023-08-07T03:19:49;3.95;;;3.55;;
49590;SDS011;35496;-21.974;-46.800;2023-08-07T03:22:15;8.02;;;4.18;;
49590;SDS011;35496;-21.974;-46.800;2023-08-07T03:24:46;8.57;;;4.00;;
49590;SDS011;35496;-21.974;-46.800;2023-08-07T03:27:13;10.52;;;4.25;;
49590;SDS011;35496;-21.974;-46.800;2023-08-07T03:29:39;5.90;;;4.85;;
49590;SDS011;35496;-21.974;-46.800;2023-08-07T03:32:05;5.32;;;3.50;;
49590;SDS011;35496;-21.974;-46.800;2023-08-07T03:34:31;5.85;;;3.92;;
49590;SDS011;35496;-21.974;-46.800;2023-08-07T03:36:57;6.57;;;3.70;;
49590;SDS011;35496;-21.974;-46.800;2023-08-07T03:39:25;5.80;;;3.20;;
49590;SDS011;35496;-21.974;-46.800;2023-08-07T03:41:51;4.22;;;3.40;;
49590;SDS011;35496;-21.974;-46.800;2023-08-07T03:44:17;9.43;;;2.83;;
49590;SDS011;35496;-21.974;-46.800;2023-08-07T03:46:43;8.32;;;3.88;;
49590;SDS011;35496;-21.974;-46.800;2023-08-07T03:49:09;6.25;;;4.13;;
49590;SDS011;35496;-21.974;-46.800;2023-08-07T03:51:35;15.65;;;4.32;;
49590;SDS011;35496;-21.974;-46.800;2023-08-07T03:54:01;14.50;;;3.78;;
49590;SDS011;35496;-21.974;-46.800;2023-08-07T03:56:27;6.35;;;3.95;;
49590;SDS011;35496;-21.974;-46.800;2023-08-07T03:58:53;10.63;;;5.15;;
49590;SDS011;35496;-21.974;-46.800;2023-08-07T04:01:19;9.15;;;4.32;;
49590;SDS011;35496;-21.974;-46.800;2023-08-07T04:03:46;8.60;;;4.40;;
49590;SDS011;35496;-21.974;-46.800;2023-08-07T04:06:12;8.63;;;5.95;;
49590;SDS011;35496;-21.974;-46.800;2023-08-07T04:08:41;6.68;;;4.90;;
49590;SDS011;35496;-21.974;-46.800;2023-08-07T04:11:08;6.50;;;4.78;;
49590;SDS011;35496;-21.974;-46.800;2023-08-07T04:13:34;4.68;;;3.55;;
49590;SDS011;35496;-21.974;-46.800;2023-08-07T04:16:00;11.38;;;5.43;;
49590;SDS011;35496;-21.974;-46.800;2023-08-07T04:18:29;4.72;;;3.58;;
49590;SDS011;35496;-21.974;-46.800;2023-08-07T04:20:55;12.82;;;6.50;;
49590;SDS011;35496;-21.974;-46.800;2023-08-07T04:23:22;15.52;;;5.55;;
49590;SDS011;35496;-21.974;-46.800;2023-08-07T04:25:48;13.10;;;5.25;;
49590;SDS011;35496;-21.974;-46.800;2023-08-07T04:28:14;5.03;;;3.42;;
49590;SDS011;35496;-21.974;-46.800;2023-08-07T04:30:41;5.88;;;3.88;;
49590;SDS011;35496;-21.974;-46.800;2023-08-07T04:33:07;6.68;;;3.95;;
49590;SDS011;35496;-21.974;-46.800;2023-08-07T04:35:33;7.82;;;3.35;;
49590;SDS011;35496;-21.974;-46.800;2023-08-07T04:38:00;13.05;;;4.82;;
49590;SDS011;35496;-21.974;-46.800;2023-08-07T04:40:26;10.05;;;3.38;;
49590;SDS011;35496;-21.974;-46.800;2023-08-07T04:42:52;4.15;;;3.50;;
49590;SDS011;35496;-21.974;-46.800;2023-08-07T04:45:18;8.60;;;4.15;;
49590;SDS011;35496;-21.974;-46.800;2023-08-07T04:47:44;14.13;;;4.82;;
49590;SDS011;35496;-21.974;-46.800;2023-08-07T04:50:11;5.05;;;3.05;;
49590;SDS011;35496;-21.974;-46.800;2023-08-07T04:52:37;9.07;;;4.97;;
49590;SDS011;35496;-21.974;-46.800;2023-08-07T04:55:03;8.27;;;4.63;;
49590;SDS011;35496;-21.974;-46.800;2023-08-07T04:57:29;6.78;;;4.07;;
49590;SDS011;35496;-21.974;-46.800;2023-08-07T04:59:55;7.18;;;3.42;;
49590;SDS011;35496;-21.974;-46.800;2023-08-07T05:02:21;5.97;;;3.42;;
49590;SDS011;35496;-21.974;-46.800;2023-08-07T05:04:48;5.68;;;3.95;;
49590;SDS011;35496;-21.974;-46.800;2023-08-07T05:07:14;12.50;;;5.95;;
49590;SDS011;35496;-21.974;-46.800;2023-08-07T05:09:40;8.18;;;3.63;;
49590;SDS011;35496;-21.974;-46.800;2023-08-07T05:12:06;10.20;;;4.00;;
49590;SDS011;35496;-21.974;-46.800;2023-08-07T05:14:32;8.32;;;5.60;;
49590;SDS011;35496;-21.974;-46.800;2023-08-07T05:16:59;7.35;;;5.00;;
49590;SDS011;35496;-21.974;-46.800;2023-08-07T05:19:27;7.60;;;4.40;;
49590;SDS011;35496;-21.974;-46.800;2023-08-07T05:21:53;8.13;;;4.18;;
49590;SDS011;35496;-21.974;-46.800;2023-08-07T05:24:19;15.55;;;5.93;;
49590;SDS011;35496;-21.974;-46.800;2023-08-07T05:26:45;9.07;;;4.93;;
49590;SDS011;35496;-21.974;-46.800;2023-08-07T05:29:11;7.72;;;5.90;;
49590;SDS011;35496;-21.974;-46.800;2023-08-07T05:31:37;8.77;;;5.70;;
49590;SDS011;35496;-21.974;-46.800;2023-08-07T05:34:03;6.22;;;4.68;;
49590;SDS011;35496;-21.974;-46.800;2023-08-07T05:36:29;8.85;;;5.40;;
49590;SDS011;35496;-21.974;-46.800;2023-08-07T05:38:57;19.55;;;5.45;;
49590;SDS011;35496;-21.974;-46.800;2023-08-07T05:41:23;10.95;;;5.00;;
49590;SDS011;35496;-21.974;-46.800;2023-08-07T05:43:49;7.72;;;4.55;;
49590;SDS011;35496;-21.974;-46.800;2023-08-07T05:46:15;6.82;;;5.15;;
49590;SDS011;35496;-21.974;-46.800;2023-08-07T05:48:41;8.43;;;5.70;;
49590;SDS011;35496;-21.974;-46.800;2023-08-07T05:51:07;10.52;;;6.40;;
49590;SDS011;35496;-21.974;-46.800;2023-08-07T05:53:34;10.52;;;5.03;;
49590;SDS011;35496;-21.974;-46.800;2023-08-07T05:56:00;7.88;;;5.20;;
49590;SDS011;35496;-21.974;-46.800;2023-08-07T05:58:26;10.60;;;5.30;;
49590;SDS011;35496;-21.974;-46.800;2023-08-07T06:00:52;9.43;;;5.80;;
49590;SDS011;35496;-21.974;-46.800;2023-08-07T06:03:18;9.32;;;5.95;;
49590;SDS011;35496;-21.974;-46.800;2023-08-07T06:05:44;11.60;;;4.80;;
49590;SDS011;35496;-21.974;-46.800;2023-08-07T06:08:10;13.80;;;5.25;;
49590;SDS011;35496;-21.974;-46.800;2023-08-07T06:10:37;12.13;;;5.85;;
49590;SDS011;35496;-21.974;-46.800;2023-08-07T06:13:03;14.45;;;5.32;;
49590;SDS011;35496;-21.974;-46.800;2023-08-07T06:15:31;6.57;;;4.78;;
49590;SDS011;35496;-21.974;-46.800;2023-08-07T06:17:57;7.55;;;4.65;;
49590;SDS011;35496;-21.974;-46.800;2023-08-07T06:20:23;10.60;;;4.90;;
49590;SDS011;35496;-21.974;-46.800;2023-08-07T06:22:49;8.90;;;4.65;;
49590;SDS011;35496;-21.974;-46.800;2023-08-07T06:25:15;9.30;;;5.13;;
49590;SDS011;35496;-21.974;-46.800;2023-08-07T06:27:41;5.07;;;4.22;;
49590;SDS011;35496;-21.974;-46.800;2023-08-07T06:30:08;6.50;;;3.88;;
49590;SDS011;35496;-21.974;-46.800;2023-08-07T06:32:34;6.38;;;3.30;;
49590;SDS011;35496;-21.974;-46.800;2023-08-07T06:35:00;6.70;;;4.00;;
49590;SDS011;35496;-21.974;-46.800;2023-08-07T06:37:27;7.78;;;3.50;;
49590;SDS011;35496;-21.974;-46.800;2023-08-07T06:39:53;7.22;;;2.85;;
49590;SDS011;35496;-21.974;-46.800;2023-08-07T06:42:19;6.50;;;3.95;;
49590;SDS011;35496;-21.974;-46.800;2023-08-07T06:44:45;5.35;;;3.60;;
49590;SDS011;35496;-21.974;-46.800;2023-08-07T06:47:11;7.85;;;3.33;;
49590;SDS011;35496;-21.974;-46.800;2023-08-07T06:49:37;11.00;;;3.08;;
49590;SDS011;35496;-21.974;-46.800;2023-08-07T06:52:03;3.72;;;2.70;;
49590;SDS011;35496;-21.974;-46.800;2023-08-07T06:54:29;7.88;;;3.78;;
49590;SDS011;35496;-21.974;-46.800;2023-08-07T06:56:55;6.38;;;2.95;;
49590;SDS011;35496;-21.974;-46.800;2023-08-07T06:59:21;3.63;;;2.83;;
49590;SDS011;35496;-21.974;-46.800;2023-08-07T07:01:49;7.05;;;4.43;;
49590;SDS011;35496;-21.974;-46.800;2023-08-07T07:04:15;8.27;;;4.78;;
49590;SDS011;35496;-21.974;-46.800;2023-08-07T07:06:41;7.88;;;4.57;;
49590;SDS011;35496;-21.974;-46.800;2023-08-07T07:09:07;6.50;;;4.70;;
49590;SDS011;35496;-21.974;-46.800;2023-08-07T07:11:33;9.48;;;5.32;;
49590;SDS011;35496;-21.974;-46.800;2023-08-07T07:14:00;6.60;;;5.13;;
49590;SDS011;35496;-21.974;-46.800;2023-08-07T07:16:26;9.75;;;5.45;;
49590;SDS011;35496;-21.974;-46.800;2023-08-07T07:18:52;8.52;;;4.43;;
49590;SDS011;35496;-21.974;-46.800;2023-08-07T07:21:18;9.45;;;5.00;;
49590;SDS011;35496;-21.974;-46.800;2023-08-07T07:23:44;5.55;;;4.00;;
49590;SDS011;35496;-21.974;-46.800;2023-08-07T07:26:10;5.28;;;4.18;;
49590;SDS011;35496;-21.974;-46.800;2023-08-07T07:28:36;7.28;;;3.58;;
49590;SDS011;35496;-21.974;-46.800;2023-08-07T07:31:02;4.30;;;3.70;;
49590;SDS011;35496;-21.974;-46.800;2023-08-07T07:33:29;3.67;;;3.33;;
49590;SDS011;35496;-21.974;-46.800;2023-08-07T07:35:56;7.70;;;4.13;;
49590;SDS011;35496;-21.974;-46.800;2023-08-07T07:38:22;9.43;;;4.07;;
49590;SDS011;35496;-21.974;-46.800;2023-08-07T07:40:48;6.68;;;3.67;;
49590;SDS011;35496;-21.974;-46.800;2023-08-07T07:43:14;8.63;;;2.78;;
49590;SDS011;35496;-21.974;-46.800;2023-08-07T07:45:40;3.08;;;2.88;;
49590;SDS011;35496;-21.974;-46.800;2023-08-07T07:48:06;9.20;;;3.55;;
49590;SDS011;35496;-21.974;-46.800;2023-08-07T07:50:33;9.30;;;3.63;;
49590;SDS011;35496;-21.974;-46.800;2023-08-07T07:52:59;7.05;;;3.30;;
49590;SDS011;35496;-21.974;-46.800;2023-08-07T07:55:26;6.00;;;2.63;;
49590;SDS011;35496;-21.974;-46.800;2023-08-07T07:57:53;5.22;;;3.35;;
49590;SDS011;35496;-21.974;-46.800;2023-08-07T08:00:19;5.55;;;2.83;;
49590;SDS011;35496;-21.974;-46.800;2023-08-07T08:02:45;5.93;;;3.17;;
49590;SDS011;35496;-21.974;-46.800;2023-08-07T08:05:11;6.85;;;2.92;;
49590;SDS011;35496;-21.974;-46.800;2023-08-07T08:07:38;4.10;;;3.15;;
49590;SDS011;35496;-21.974;-46.800;2023-08-07T08:10:08;4.43;;;2.47;;
49590;SDS011;35496;-21.974;-46.800;2023-08-07T08:12:34;5.78;;;4.05;;
49590;SDS011;35496;-21.974;-46.800;2023-08-07T08:15:01;10.00;;;3.67;;
49590;SDS011;35496;-21.974;-46.800;2023-08-07T08:17:27;4.88;;;3.25;;
49590;SDS011;35496;-21.974;-46.800;2023-08-07T08:19:54;4.18;;;3.05;;
49590;SDS011;35496;-21.974;-46.800;2023-08-07T08:22:20;3.83;;;2.60;;
49590;SDS011;35496;-21.974;-46.800;2023-08-07T08:24:46;4.25;;;3.80;;
49590;SDS011;35496;-21.974;-46.800;2023-08-07T08:27:13;7.07;;;3.35;;
49590;SDS011;35496;-21.974;-46.800;2023-08-07T08:29:39;6.15;;;2.95;;
49590;SDS011;35496;-21.974;-46.800;2023-08-07T08:32:05;11.52;;;3.95;;
49590;SDS011;35496;-21.974;-46.800;2023-08-07T08:34:32;5.60;;;3.28;;
49590;SDS011;35496;-21.974;-46.800;2023-08-07T08:36:58;10.68;;;3.15;;
49590;SDS011;35496;-21.974;-46.800;2023-08-07T08:39:24;2.97;;;2.22;;
49590;SDS011;35496;-21.974;-46.800;2023-08-07T08:41:50;6.65;;;2.97;;
49590;SDS011;35496;-21.974;-46.800;2023-08-07T08:44:17;8.15;;;2.58;;
49590;SDS011;35496;-21.974;-46.800;2023-08-07T08:46:45;8.13;;;3.33;;
49590;SDS011;35496;-21.974;-46.800;2023-08-07T08:49:13;4.25;;;2.95;;
49590;SDS011;35496;-21.974;-46.800;2023-08-07T08:51:40;4.35;;;2.70;;
49590;SDS011;35496;-21.974;-46.800;2023-08-07T08:54:06;9.40;;;2.85;;
49590;SDS011;35496;-21.974;-46.800;2023-08-07T08:56:33;7.18;;;3.25;;
49590;SDS011;35496;-21.974;-46.800;2023-08-07T08:58:59;9.65;;;2.90;;
49590;SDS011;35496;-21.974;-46.800;2023-08-07T09:01:25;7.20;;;3.25;;
49590;SDS011;35496;-21.974;-46.800;2023-08-07T09:03:53;4.15;;;2.45;;
49590;SDS011;35496;-21.974;-46.800;2023-08-07T09:06:19;5.68;;;2.60;;
49590;SDS011;35496;-21.974;-46.800;2023-08-07T09:08:45;4.88;;;3.08;;
49590;SDS011;35496;-21.974;-46.800;2023-08-07T09:11:12;3.88;;;3.17;;
49590;SDS011;35496;-21.974;-46.800;2023-08-07T09:13:39;28.75;;;3.63;;
49590;SDS011;35496;-21.974;-46.800;2023-08-07T09:16:07;6.20;;;2.90;;
49590;SDS011;35496;-21.974;-46.800;2023-08-07T09:18:34;6.65;;;3.17;;
49590;SDS011;35496;-21.974;-46.800;2023-08-07T09:21:01;8.07;;;2.78;;
49590;SDS011;35496;-21.974;-46.800;2023-08-07T09:23:27;11.18;;;3.53;;
49590;SDS011;35496;-21.974;-46.800;2023-08-07T09:26:00;7.50;;;3.50;;
49590;SDS011;35496;-21.974;-46.800;2023-08-07T09:28:26;3.47;;;3.17;;
49590;SDS011;35496;-21.974;-46.800;2023-08-07T09:30:52;10.02;;;2.88;;
49590;SDS011;35496;-21.974;-46.800;2023-08-07T09:33:25;13.23;;;3.35;;
49590;SDS011;35496;-21.974;-46.800;2023-08-07T09:35:51;21.30;;;3.60;;
49590;SDS011;35496;-21.974;-46.800;2023-08-07T09:38:18;10.75;;;3.55;;
49590;SDS011;35496;-21.974;-46.800;2023-08-07T09:40:44;8.45;;;3.13;;
49590;SDS011;35496;-21.974;-46.800;2023-08-07T09:43:10;9.20;;;3.60;;
49590;SDS011;35496;-21.974;-46.800;2023-08-07T09:45:45;7.20;;;3.15;;
49590;SDS011;35496;-21.974;-46.800;2023-08-07T09:48:11;3.67;;;2.45;;
49590;SDS011;35496;-21.974;-46.800;2023-08-07T09:50:38;11.80;;;3.85;;
49590;SDS011;35496;-21.974;-46.800;2023-08-07T09:53:04;5.78;;;2.88;;
49590;SDS011;35496;-21.974;-46.800;2023-08-07T09:55:30;6.75;;;3.65;;
49590;SDS011;35496;-21.974;-46.800;2023-08-07T09:57:57;8.48;;;3.40;;
49590;SDS011;35496;-21.974;-46.800;2023-08-07T10:00:23;7.70;;;4.03;;
49590;SDS011;35496;-21.974;-46.800;2023-08-07T10:02:50;6.72;;;3.05;;
49590;SDS011;35496;-21.974;-46.800;2023-08-07T10:05:17;7.97;;;3.05;;
49590;SDS011;35496;-21.974;-46.800;2023-08-07T10:07:43;5.88;;;2.85;;
49590;SDS011;35496;-21.974;-46.800;2023-08-07T10:10:09;6.18;;;2.53;;
49590;SDS011;35496;-21.974;-46.800;2023-08-07T10:12:36;3.75;;;2.97;;
49590;SDS011;35496;-21.974;-46.800;2023-08-07T10:15:03;14.18;;;3.28;;
49590;SDS011;35496;-21.974;-46.800;2023-08-07T10:17:30;6.20;;;3.42;;
49590;SDS011;35496;-21.974;-46.800;2023-08-07T10:19:57;6.22;;;2.72;;
49590;SDS011;35496;-21.974;-46.800;2023-08-07T10:22:24;4.47;;;2.58;;
49590;SDS011;35496;-21.974;-46.800;2023-08-07T10:24:52;6.90;;;2.60;;
49590;SDS011;35496;-21.974;-46.800;2023-08-07T10:27:19;7.35;;;3.03;;
49590;SDS011;35496;-21.974;-46.800;2023-08-07T10:29:46;4.65;;;2.67;;
49590;SDS011;35496;-21.974;-46.800;2023-08-07T10:32:13;8.07;;;4.07;;
49590;SDS011;35496;-21.974;-46.800;2023-08-07T10:34:42;7.35;;;3.72;;
49590;SDS011;35496;-21.974;-46.800;2023-08-07T10:37:37;4.70;;;2.60;;
49590;SDS011;35496;-21.974;-46.800;2023-08-07T10:40:02;6.90;;;3.17;;
49590;SDS011;35496;-21.974;-46.800;2023-08-07T10:42:33;6.18;;;3.15;;
49590;SDS011;35496;-21.974;-46.800;2023-08-07T10:45:17;3.95;;;2.10;;
49590;SDS011;35496;-21.974;-46.800;2023-08-07T10:47:43;3.83;;;3.25;;
49590;SDS011;35496;-21.974;-46.800;2023-08-07T10:50:09;5.95;;;2.53;;
49590;SDS011;35496;-21.974;-46.800;2023-08-07T10:52:38;9.27;;;2.58;;
49590;SDS011;35496;-21.974;-46.800;2023-08-07T10:55:12;8.23;;;2.80;;
49590;SDS011;35496;-21.974;-46.800;2023-08-07T10:57:38;4.97;;;2.30;;
49590;SDS011;35496;-21.974;-46.800;2023-08-07T11:00:06;5.22;;;3.22;;
49590;SDS011;35496;-21.974;-46.800;2023-08-07T11:02:36;6.75;;;3.63;;
49590;SDS011;35496;-21.974;-46.800;2023-08-07T11:05:05;5.45;;;3.38;;
49590;SDS011;35496;-21.974;-46.800;2023-08-07T11:07:31;8.52;;;3.90;;
49590;SDS011;35496;-21.974;-46.800;2023-08-07T11:09:57;3.13;;;2.60;;
49590;SDS011;35496;-21.974;-46.800;2023-08-07T11:12:27;5.47;;;3.40;;
49590;SDS011;35496;-21.974;-46.800;2023-08-07T11:14:53;8.73;;;3.88;;
49590;SDS011;35496;-21.974;-46.800;2023-08-07T11:17:25;12.20;;;2.53;;
49590;SDS011;35496;-21.974;-46.800;2023-08-07T11:19:51;5.70;;;3.03;;
49590;SDS011;35496;-21.974;-46.800;2023-08-07T11:22:17;5.15;;;2.75;;
49590;SDS011;35496;-21.974;-46.800;2023-08-07T11:24:43;11.02;;;2.72;;
49590;SDS011;35496;-21.974;-46.800;2023-08-07T11:27:09;6.75;;;3.33;;
49590;SDS011;35496;-21.974;-46.800;2023-08-07T11:29:35;9.40;;;2.53;;
49590;SDS011;35496;-21.974;-46.800;2023-08-07T11:32:01;6.47;;;2.38;;
49590;SDS011;35496;-21.974;-46.800;2023-08-07T11:34:27;7.82;;;3.28;;
49590;SDS011;35496;-21.974;-46.800;2023-08-07T11:36:53;7.00;;;2.17;;
49590;SDS011;35496;-21.974;-46.800;2023-08-07T11:39:23;10.45;;;2.42;;
49590;SDS011;35496;-21.974;-46.800;2023-08-07T11:41:50;3.72;;;2.38;;
49590;SDS011;35496;-21.974;-46.800;2023-08-07T11:44:18;14.25;;;3.20;;
49590;SDS011;35496;-21.974;-46.800;2023-08-07T11:46:44;7.43;;;4.40;;
49590;SDS011;35496;-21.974;-46.800;2023-08-07T11:49:10;9.68;;;3.17;;
49590;SDS011;35496;-21.974;-46.800;2023-08-07T11:51:37;6.43;;;3.00;;
49590;SDS011;35496;-21.974;-46.800;2023-08-07T11:54:03;7.75;;;2.67;;
49590;SDS011;35496;-21.974;-46.800;2023-08-07T11:56:30;6.82;;;2.35;;
49590;SDS011;35496;-21.974;-46.800;2023-08-07T11:58:56;4.43;;;3.03;;
49590;SDS011;35496;-21.974;-46.800;2023-08-07T12:01:23;7.38;;;3.42;;
49590;SDS011;35496;-21.974;-46.800;2023-08-07T12:03:53;4.57;;;2.85;;
49590;SDS011;35496;-21.974;-46.800;2023-08-07T12:06:23;3.42;;;2.83;;
49590;SDS011;35496;-21.974;-46.800;2023-08-07T12:08:50;4.80;;;2.97;;
49590;SDS011;35496;-21.974;-46.800;2023-08-07T12:11:19;4.00;;;2.22;;
49590;SDS011;35496;-21.974;-46.800;2023-08-07T12:13:46;6.20;;;4.15;;
49590;SDS011;35496;-21.974;-46.800;2023-08-07T12:16:16;4.97;;;3.17;;
49590;SDS011;35496;-21.974;-46.800;2023-08-07T12:18:49;3.33;;;2.22;;
49590;SDS011;35496;-21.974;-46.800;2023-08-07T12:21:19;5.03;;;2.42;;
49590;SDS011;35496;-21.974;-46.800;2023-08-07T12:23:46;6.03;;;3.22;;
49590;SDS011;35496;-21.974;-46.800;2023-08-07T12:26:15;4.45;;;3.17;;
49590;SDS011;35496;-21.974;-46.800;2023-08-07T12:28:41;6.25;;;3.63;;
49590;SDS011;35496;-21.974;-46.800;2023-08-07T12:31:10;4.75;;;4.18;;
49590;SDS011;35496;-21.974;-46.800;2023-08-07T12:33:36;8.35;;;4.15;;
49590;SDS011;35496;-21.974;-46.800;2023-08-07T12:36:02;8.02;;;3.53;;
49590;SDS011;35496;-21.974;-46.800;2023-08-07T12:38:28;7.43;;;4.55;;
49590;SDS011;35496;-21.974;-46.800;2023-08-07T12:40:55;4.78;;;2.58;;
49590;SDS011;35496;-21.974;-46.800;2023-08-07T12:43:21;3.85;;;3.05;;
49590;SDS011;35496;-21.974;-46.800;2023-08-07T12:45:47;4.45;;;2.70;;
49590;SDS011;35496;-21.974;-46.800;2023-08-07T12:48:13;7.28;;;3.08;;
49590;SDS011;35496;-21.974;-46.800;2023-08-07T12:50:39;5.43;;;2.75;;
49590;SDS011;35496;-21.974;-46.800;2023-08-07T12:53:06;5.68;;;3.30;;
49590;SDS011;35496;-21.974;-46.800;2023-08-07T12:55:32;2.92;;;2.38;;
49590;SDS011;35496;-21.974;-46.800;2023-08-07T12:57:58;7.78;;;2.63;;
49590;SDS011;35496;-21.974;-46.800;2023-08-07T13:00:24;14.02;;;3.45;;
49590;SDS011;35496;-21.974;-46.800;2023-08-07T13:02:52;4.90;;;3.53;;
49590;SDS011;35496;-21.974;-46.800;2023-08-07T13:05:21;8.88;;;2.90;;
49590;SDS011;35496;-21.974;-46.800;2023-08-07T13:07:48;6.50;;;2.83;;
49590;SDS011;35496;-21.974;-46.800;2023-08-07T13:10:14;5.10;;;2.28;;
49590;SDS011;35496;-21.974;-46.800;2023-08-07T13:12:41;6.80;;;2.55;;
49590;SDS011;35496;-21.974;-46.800;2023-08-07T13:15:08;11.15;;;3.08;;
49590;SDS011;35496;-21.974;-46.800;2023-08-07T13:17:35;3.60;;;2.63;;
49590;SDS011;35496;-21.974;-46.800;2023-08-07T13:20:02;5.40;;;2.97;;
49590;SDS011;35496;-21.974;-46.800;2023-08-07T13:22:34;9.00;;;2.60;;
49590;SDS011;35496;-21.974;-46.800;2023-08-07T13:25:00;3.13;;;2.33;;
49590;SDS011;35496;-21.974;-46.800;2023-08-07T13:27:26;19.25;;;2.88;;
49590;SDS011;35496;-21.974;-46.800;2023-08-07T13:29:52;5.70;;;3.03;;
49590;SDS011;35496;-21.974;-46.800;2023-08-07T13:32:18;19.35;;;2.58;;
49590;SDS011;35496;-21.974;-46.800;2023-08-07T13:34:45;5.65;;;2.40;;
49590;SDS011;35496;-21.974;-46.800;2023-08-07T13:37:12;8.13;;;2.65;;
49590;SDS011;35496;-21.974;-46.800;2023-08-07T13:39:38;8.82;;;2.85;;
49590;SDS011;35496;-21.974;-46.800;2023-08-07T13:42:04;7.55;;;3.25;;
49590;SDS011;35496;-21.974;-46.800;2023-08-07T13:44:31;6.97;;;3.38;;
49590;SDS011;35496;-21.974;-46.800;2023-08-07T13:46:57;5.32;;;2.95;;
49590;SDS011;35496;-21.974;-46.800;2023-08-07T13:49:23;10.93;;;3.10;;
49590;SDS011;35496;-21.974;-46.800;2023-08-07T13:51:49;2.05;;;1.95;;
49590;SDS011;35496;-21.974;-46.800;2023-08-07T13:54:15;6.10;;;3.20;;
49590;SDS011;35496;-21.974;-46.800;2023-08-07T13:56:41;3.40;;;2.25;;
49590;SDS011;35496;-21.974;-46.800;2023-08-07T13:59:07;6.70;;;3.00;;
49590;SDS011;35496;-21.974;-46.800;2023-08-07T14:01:34;3.05;;;2.25;;
49590;SDS011;35496;-21.974;-46.800;2023-08-07T14:04:04;7.68;;;2.90;;
49590;SDS011;35496;-21.974;-46.800;2023-08-07T14:06:30;3.80;;;2.53;;
49590;SDS011;35496;-21.974;-46.800;2023-08-07T14:08:56;5.43;;;3.22;;